Time,TemperatureF,DewpointF,PressureIn,WindDirection,WindDirectionDegrees,WindSpeedMPH,WindSpeedGustMPH,Humidity,HourlyPrecipIn,Conditions,Clouds,dailyrainin,SoftwareType,DateUTC
2013-04-03 00:00:00,72.8,69.0,30.05,NE,36,6.0,8.0,88,0.00,,,0.01,Wunderground v.1.15,2013-04-03 04:00:00,
2013-04-03 00:05:00,72.8,69.0,30.05,NE,36,6.0,8.0,88,0.00,,,0.00,Wunderground v.1.15,2013-04-03 04:05:00,
2013-04-03 00:20:00,73.0,69.2,30.05,ENE,67,7.0,7.0,88,0.00,,,0.00,Wunderground v.1.15,2013-04-03 04:20:00,
2013-04-03 00:25:00,73.1,69.3,30.05,NE,35,6.0,7.0,88,0.00,,,0.00,Wunderground v.1.15,2013-04-03 04:25:00,
2013-04-03 00:30:00,73.1,69.3,30.05,NE,46,5.0,6.0,88,0.00,,,0.00,Wunderground v.1.15,2013-04-03 04:30:00,
2013-04-03 00:35:00,73.0,69.2,30.04,NNE,32,6.0,7.0,88,0.00,,,0.00,Wunderground v.1.15,2013-04-03 04:35:00,
2013-04-03 00:45:00,72.9,69.1,30.04,NE,40,4.0,5.0,88,0.00,,,0.00,Wunderground v.1.15,2013-04-03 04:45:00,
2013-04-03 00:50:00,72.8,69.0,30.04,ENE,67,4.0,4.0,88,0.00,,,0.00,Wunderground v.1.15,2013-04-03 04:50:00,
2013-04-03 01:00:00,72.6,68.8,30.04,NE,48,3.0,3.0,88,0.00,,,0.00,Wunderground v.1.15,2013-04-03 05:00:00,
2013-04-03 01:05:00,72.6,68.8,30.04,NNE,27,4.0,7.0,88,0.00,,,0.00,Wunderground v.1.15,2013-04-03 05:05:00,
2013-04-03 01:10:00,72.6,68.8,30.04,NNE,27,5.0,5.0,88,0.00,,,0.00,Wunderground v.1.15,2013-04-03 05:10:00,
2013-04-03 01:20:00,72.6,68.8,30.04,ENE,59,5.0,5.0,88,0.00,,,0.00,Wunderground v.1.15,2013-04-03 05:20:00,
2013-04-03 01:25:00,72.6,68.8,30.04,NE,50,5.0,5.0,88,0.00,,,0.00,Wunderground v.1.15,2013-04-03 05:25:00,
2013-04-03 01:35:00,72.6,68.8,30.04,NNE,33,4.0,5.0,88,0.00,,,0.00,Wunderground v.1.15,2013-04-03 05:35:00,
2013-04-03 01:40:00,72.7,68.9,30.04,NE,42,4.0,4.0,88,0.00,,,0.00,Wunderground v.1.15,2013-04-03 05:40:00,
2013-04-03 01:50:00,72.8,69.0,30.04,NE,42,4.0,4.0,88,0.00,,,0.00,Wunderground v.1.15,2013-04-03 05:50:00,
2013-04-03 01:55:00,72.8,69.0,30.03,NE,42,3.0,4.0,88,0.00,,,0.00,Wunderground v.1.15,2013-04-03 05:55:00,
2013-04-03 02:00:00,72.8,69.0,30.03,NE,36,3.0,6.0,88,0.00,,,0.00,Wunderground v.1.15,2013-04-03 06:00:00,
2013-04-03 02:10:00,72.9,69.1,30.03,NNE,30,5.0,5.0,88,0.00,,,0.00,Wunderground v.1.15,2013-04-03 06:10:00,
2013-04-03 02:15:00,72.9,69.1,30.03,NE,50,4.0,5.0,88,0.00,,,0.00,Wunderground v.1.15,2013-04-03 06:15:00,
2013-04-03 02:25:00,72.8,69.0,30.03,NE,50,3.0,4.0,88,0.00,,,0.00,Wunderground v.1.15,2013-04-03 06:25:00,
2013-04-03 02:30:00,72.7,68.9,30.02,NE,36,4.0,4.0,88,0.00,,,0.00,Wunderground v.1.15,2013-04-03 06:30:00,
2013-04-03 02:40:00,72.6,68.8,30.02,ENE,64,2.0,2.0,88,0.00,,,0.00,Wunderground v.1.15,2013-04-03 06:40:00,
2013-04-03 02:50:00,72.5,68.7,30.02,NE,44,2.0,3.0,88,0.00,,,0.00,Wunderground v.1.15,2013-04-03 06:50:00,
2013-04-03 02:55:00,72.4,68.6,30.02,ENE,64,2.0,3.0,88,0.00,,,0.00,Wunderground v.1.15,2013-04-03 06:55:00,
2013-04-03 03:05:00,72.4,68.6,30.01,ENE,67,3.0,5.0,88,0.00,,,0.00,Wunderground v.1.15,2013-04-03 07:05:00,
2013-04-03 03:10:00,72.4,68.6,30.01,ENE,61,3.0,3.0,88,0.00,,,0.00,Wunderground v.1.15,2013-04-03 07:10:00,
2013-04-03 03:20:00,72.4,68.6,30.01,ENE,61,2.0,5.0,88,0.00,,,0.00,Wunderground v.1.15,2013-04-03 07:20:00,
2013-04-03 03:25:00,72.4,69.0,30.01,ENE,64,3.0,5.0,89,0.00,,,0.00,Wunderground v.1.15,2013-04-03 07:25:00,
2013-04-03 03:35:00,72.4,69.0,30.00,East,94,3.0,4.0,89,0.00,,,0.00,Wunderground v.1.15,2013-04-03 07:35:00,
2013-04-03 03:40:00,72.4,69.0,30.00,East,80,3.0,3.0,89,0.00,,,0.00,Wunderground v.1.15,2013-04-03 07:40:00,
2013-04-03 03:45:00,72.5,69.1,30.00,NE,55,3.0,3.0,89,0.00,,,0.00,Wunderground v.1.15,2013-04-03 07:45:00,
2013-04-03 03:50:00,72.5,69.1,30.00,ENE,69,2.0,4.0,89,0.00,,,0.00,Wunderground v.1.15,2013-04-03 07:50:00,
2013-04-03 04:00:00,72.6,69.2,29.99,ENE,75,3.0,3.0,89,0.00,,,0.00,Wunderground v.1.15,2013-04-03 08:00:00,
2013-04-03 04:10:00,72.7,69.6,29.99,ESE,115,3.0,4.0,90,0.00,,,0.00,Wunderground v.1.15,2013-04-03 08:10:00,
2013-04-03 04:15:00,72.8,69.7,29.99,ESE,121,4.0,8.0,90,0.00,,,0.00,Wunderground v.1.15,2013-04-03 08:15:00,
2013-04-03 04:25:00,73.1,70.0,29.99,East,81,5.0,5.0,90,0.00,,,0.00,Wunderground v.1.15,2013-04-03 08:25:00,
2013-04-03 04:30:00,73.2,70.1,29.98,ESE,107,5.0,9.0,90,0.00,,,0.00,Wunderground v.1.15,2013-04-03 08:30:00,
2013-04-03 04:40:00,73.2,70.1,29.99,East,92,6.0,6.0,90,0.00,,,0.00,Wunderground v.1.15,2013-04-03 08:40:00,
2013-04-03 04:50:00,73.3,70.2,29.99,SE,138,5.0,5.0,90,0.00,,,0.00,Wunderground v.1.15,2013-04-03 08:50:00,
2013-04-03 04:55:00,73.3,70.2,29.99,SSE,153,6.0,6.0,90,0.00,,,0.00,Wunderground v.1.15,2013-04-03 08:55:00,
2013-04-03 05:00:00,73.4,70.3,29.98,ESE,111,5.0,6.0,90,0.00,,,0.00,Wunderground v.1.15,2013-04-03 09:00:00,
2013-04-03 05:10:00,73.5,70.4,29.98,SE,146,6.0,6.0,90,0.00,,,0.00,Wunderground v.1.15,2013-04-03 09:10:00,
2013-04-03 05:20:00,73.7,70.6,29.99,SE,140,6.0,6.0,90,0.00,,,0.00,Wunderground v.1.15,2013-04-03 09:20:00,
2013-04-03 05:25:00,73.6,70.5,29.98,ESE,114,6.0,12.0,90,0.00,,,0.00,Wunderground v.1.15,2013-04-03 09:25:00,
2013-04-03 05:35:00,73.3,69.9,29.99,ESE,118,8.0,8.0,89,0.00,,,0.00,Wunderground v.1.15,2013-04-03 09:35:00,
2013-04-03 05:40:00,73.4,70.0,29.99,SE,125,7.0,8.0,89,0.00,,,0.00,Wunderground v.1.15,2013-04-03 09:40:00,
2013-04-03 05:50:00,73.6,70.2,29.99,SSE,158,8.0,8.0,89,0.00,,,0.00,Wunderground v.1.15,2013-04-03 09:50:00,
2013-04-03 05:55:00,73.7,69.9,29.99,SE,136,8.0,8.0,88,0.00,,,0.00,Wunderground v.1.15,2013-04-03 09:55:00,
2013-04-03 06:00:00,73.7,69.9,29.99,ESE,121,7.0,7.0,88,0.00,,,0.00,Wunderground v.1.15,2013-04-03 10:00:00,
2013-04-03 06:10:00,73.7,69.9,29.99,East,100,8.0,8.0,88,0.00,,,0.00,Wunderground v.1.15,2013-04-03 10:10:00,
2013-04-03 06:15:00,73.8,70.0,29.99,SSE,148,8.0,8.0,88,0.00,,,0.00,Wunderground v.1.15,2013-04-03 10:15:00,
2013-04-03 06:25:00,73.9,70.1,29.99,SE,132,7.0,10.0,88,0.00,,,0.00,Wunderground v.1.15,2013-04-03 10:25:00,
2013-04-03 06:30:00,73.9,70.1,29.99,ESE,123,7.0,9.0,88,0.00,,,0.00,Wunderground v.1.15,2013-04-03 10:30:00,
2013-04-03 06:40:00,74.0,70.2,29.99,SE,128,7.0,7.0,88,0.00,,,0.00,Wunderground v.1.15,2013-04-03 10:40:00,
2013-04-03 06:45:00,74.0,70.2,29.99,SE,126,7.0,7.0,88,0.00,,,0.00,Wunderground v.1.15,2013-04-03 10:45:00,
2013-04-03 06:50:00,73.9,70.1,29.99,ESE,105,7.0,7.0,88,0.00,,,0.00,Wunderground v.1.15,2013-04-03 10:50:00,
2013-04-03 07:00:00,73.8,70.0,30.00,SE,124,6.0,6.0,88,0.00,,,0.00,Wunderground v.1.15,2013-04-03 11:00:00,
2013-04-03 07:05:00,73.8,70.0,30.00,East,94,6.0,6.0,88,0.00,,,0.00,Wunderground v.1.15,2013-04-03 11:05:00,
2013-04-03 07:15:00,73.7,69.9,30.00,East,100,6.0,9.0,88,0.00,,,0.00,Wunderground v.1.15,2013-04-03 11:15:00,
2013-04-03 07:20:00,73.8,70.0,30.00,ESE,107,6.0,9.0,88,0.00,,,0.00,Wunderground v.1.15,2013-04-03 11:20:00,
2013-04-03 07:30:00,73.9,70.1,30.00,East,100,6.0,7.0,88,0.00,,,0.00,Wunderground v.1.15,2013-04-03 11:30:00,
2013-04-03 07:35:00,73.9,70.1,30.00,ESE,121,6.0,7.0,88,0.00,,,0.00,Wunderground v.1.15,2013-04-03 11:35:00,
2013-04-03 07:40:00,73.9,70.1,30.00,ESE,119,7.0,10.0,88,0.00,,,0.00,Wunderground v.1.15,2013-04-03 11:40:00,
2013-04-03 07:50:00,74.1,70.3,30.00,ESE,109,8.0,11.0,88,0.00,,,0.00,Wunderground v.1.15,2013-04-03 11:50:00,
2013-04-03 07:55:00,74.3,70.2,30.00,ESE,104,8.0,11.0,87,0.00,,,0.00,Wunderground v.1.15,2013-04-03 11:55:00,
2013-04-03 08:05:00,74.7,70.2,30.00,SE,125,9.0,9.0,86,0.00,,,0.00,Wunderground v.1.15,2013-04-03 12:05:00,
2013-04-03 08:10:00,74.9,70.1,30.00,ESE,119,9.0,9.0,85,0.00,,,0.00,Wunderground v.1.15,2013-04-03 12:10:00,
2013-04-03 08:15:00,75.2,70.4,30.00,East,98,9.0,9.0,85,0.00,,,0.00,Wunderground v.1.15,2013-04-03 12:15:00,
2013-04-03 08:25:00,75.6,70.8,30.00,ESE,111,9.0,9.0,85,0.00,,,0.00,Wunderground v.1.15,2013-04-03 12:25:00,
2013-04-03 08:30:00,75.7,70.5,30.00,SE,131,9.0,9.0,84,0.00,,,0.00,Wunderground v.1.15,2013-04-03 12:30:00,
2013-04-03 08:40:00,76.2,71.0,30.00,ESE,117,7.0,11.0,84,0.00,,,0.00,Wunderground v.1.15,2013-04-03 12:40:00,
2013-04-03 08:45:00,76.3,71.1,30.00,ESE,116,8.0,11.0,84,0.00,,,0.00,Wunderground v.1.15,2013-04-03 12:45:00,
2013-04-03 08:55:00,76.6,71.4,30.00,ESE,119,8.0,11.0,84,0.00,,,0.00,Wunderground v.1.15,2013-04-03 12:55:00,
2013-04-03 09:00:00,76.7,71.5,30.00,ESE,113,8.0,8.0,84,0.00,,,0.00,Wunderground v.1.15,2013-04-03 13:00:00,
2013-04-03 09:10:00,77.0,71.8,30.01,ESE,109,7.0,7.0,84,0.00,,,0.00,Wunderground v.1.15,2013-04-03 13:10:00,
2013-04-03 09:15:00,77.4,72.2,30.01,ESE,107,7.0,7.0,84,0.00,,,0.00,Wunderground v.1.15,2013-04-03 13:15:00,
2013-04-03 09:25:00,77.5,71.9,30.01,ESE,121,7.0,9.0,83,0.00,,,0.00,Wunderground v.1.15,2013-04-03 13:25:00,
2013-04-03 09:35:00,77.9,72.3,30.01,ESE,113,7.0,10.0,83,0.00,,,0.00,Wunderground v.1.15,2013-04-03 13:35:00,
2013-04-03 09:40:00,78.0,72.4,30.01,SSE,147,7.0,9.0,83,0.00,,,0.00,Wunderground v.1.15,2013-04-03 13:40:00,
2013-04-03 09:50:00,78.6,73.0,30.01,SE,135,7.0,9.0,83,0.00,,,0.00,Wunderground v.1.15,2013-04-03 13:50:00,
2013-04-03 09:55:00,78.5,72.9,30.01,SSE,167,7.0,9.0,83,0.00,,,0.00,Wunderground v.1.15,2013-04-03 13:55:00,
2013-04-03 10:00:00,78.6,73.0,30.01,SE,134,7.0,7.0,83,0.00,,,0.00,Wunderground v.1.15,2013-04-03 14:00:00,
2013-04-03 10:10:00,79.1,73.5,30.01,SE,125,7.0,7.0,83,0.00,,,0.00,Wunderground v.1.15,2013-04-03 14:10:00,
2013-04-03 10:20:00,79.6,74.3,30.02,SSE,163,7.0,7.0,84,0.00,,,0.00,Wunderground v.1.15,2013-04-03 14:20:00,
2013-04-03 10:30:00,79.8,73.4,30.02,SSE,163,7.0,8.0,81,0.00,,,0.00,Wunderground v.1.15,2013-04-03 14:30:00,
2013-04-03 10:35:00,80.2,73.8,30.02,SE,140,7.0,8.0,81,0.00,,,0.00,Wunderground v.1.15,2013-04-03 14:35:00,
2013-04-03 10:40:00,80.3,73.6,30.02,SE,142,7.0,7.0,80,0.00,,,0.00,Wunderground v.1.15,2013-04-03 14:40:00,
2013-04-03 10:50:00,79.7,73.3,30.01,SE,141,8.0,8.0,81,0.00,,,0.00,Wunderground v.1.15,2013-04-03 14:50:00,
2013-04-03 11:00:00,80.3,73.6,30.01,East,99,8.0,8.0,80,0.00,,,0.00,Wunderground v.1.15,2013-04-03 15:00:00,
2013-04-03 11:05:00,80.6,73.9,30.01,ESE,122,8.0,8.0,80,0.00,,,0.00,Wunderground v.1.15,2013-04-03 15:05:00,
2013-04-03 11:15:00,81.1,74.0,30.00,SE,134,8.0,11.0,79,0.00,,,0.00,Wunderground v.1.15,2013-04-03 15:15:00,
2013-04-03 11:20:00,81.3,74.2,30.00,ESE,111,9.0,9.0,79,0.00,,,0.00,Wunderground v.1.15,2013-04-03 15:20:00,
2013-04-03 11:30:00,81.6,74.5,30.00,SE,139,8.0,8.0,79,0.00,,,0.00,Wunderground v.1.15,2013-04-03 15:30:00,
2013-04-03 11:40:00,81.5,74.0,30.00,ESE,123,9.0,15.0,78,0.00,,,0.00,Wunderground v.1.15,2013-04-03 15:40:00,
2013-04-03 11:45:00,81.7,74.2,30.00,SSE,163,9.0,15.0,78,0.00,,,0.00,Wunderground v.1.15,2013-04-03 15:45:00,
2013-04-03 11:50:00,81.4,73.9,30.00,SE,142,10.0,10.0,78,0.00,,,0.00,Wunderground v.1.15,2013-04-03 15:50:00,
2013-04-03 12:00:00,81.7,74.5,30.00,SE,140,9.0,14.0,79,0.00,,,0.00,Wunderground v.1.15,2013-04-03 16:00:00,
2013-04-03 12:05:00,81.9,74.0,30.00,SE,136,10.0,14.0,77,0.00,,,0.00,Wunderground v.1.15,2013-04-03 16:05:00,
2013-04-03 12:15:00,82.3,74.4,30.00,SE,134,10.0,10.0,77,0.00,,,0.00,Wunderground v.1.15,2013-04-03 16:15:00,
2013-04-03 12:25:00,81.8,74.3,30.00,ESE,121,11.0,11.0,78,0.00,,,0.00,Wunderground v.1.15,2013-04-03 16:25:00,
2013-04-03 12:30:00,81.9,74.4,29.99,SE,146,11.0,11.0,78,0.00,,,0.00,Wunderground v.1.15,2013-04-03 16:30:00,
2013-04-03 12:40:00,82.1,74.2,29.99,SE,140,10.0,10.0,77,0.00,,,0.00,Wunderground v.1.15,2013-04-03 16:40:00,
2013-04-03 12:45:00,82.4,74.5,29.99,SE,136,9.0,10.0,77,0.00,,,0.00,Wunderground v.1.15,2013-04-03 16:45:00,
2013-04-03 12:55:00,82.9,74.9,29.99,SE,131,9.0,9.0,77,0.00,,,0.00,Wunderground v.1.15,2013-04-03 16:55:00,
2013-04-03 13:00:00,82.7,74.4,29.99,SSE,158,9.0,10.0,76,0.00,,,0.00,Wunderground v.1.15,2013-04-03 17:00:00,
2013-04-03 13:05:00,82.3,74.4,29.99,ESE,115,9.0,11.0,77,0.00,,,0.00,Wunderground v.1.15,2013-04-03 17:05:00,
2013-04-03 13:15:00,82.9,75.7,29.99,SE,144,9.0,12.0,79,0.00,,,0.00,Wunderground v.1.15,2013-04-03 17:15:00,
2013-04-03 13:20:00,83.0,75.0,29.99,SE,134,9.0,9.0,77,0.00,,,0.00,Wunderground v.1.15,2013-04-03 17:20:00,
2013-04-03 13:30:00,82.5,74.6,29.98,SE,136,10.0,12.0,77,0.00,,,0.00,Wunderground v.1.15,2013-04-03 17:30:00,
2013-04-03 13:35:00,82.4,74.5,29.98,SSE,148,11.0,12.0,77,0.00,,,0.00,Wunderground v.1.15,2013-04-03 17:35:00,
2013-04-03 13:40:00,82.6,74.7,29.97,SE,132,10.0,16.0,77,0.00,,,0.00,Wunderground v.1.15,2013-04-03 17:40:00,
2013-04-03 13:50:00,82.4,74.5,29.97,SE,124,9.0,9.0,77,0.00,,,0.00,Wunderground v.1.15,2013-04-03 17:50:00,
2013-04-03 13:55:00,82.8,75.6,29.97,SE,131,9.0,10.0,79,0.00,,,0.00,Wunderground v.1.15,2013-04-03 17:55:00,
2013-04-03 14:05:00,82.6,74.7,29.98,SE,139,9.0,9.0,77,0.00,,,0.00,Wunderground v.1.15,2013-04-03 18:05:00,
2013-04-03 14:10:00,82.7,74.8,29.97,SE,132,8.0,8.0,77,0.00,,,0.00,Wunderground v.1.15,2013-04-03 18:10:00,
2013-04-03 14:20:00,82.5,74.6,29.97,SE,129,8.0,8.0,77,0.00,,,0.00,Wunderground v.1.15,2013-04-03 18:20:00,
2013-04-03 14:30:00,82.4,74.8,29.97,SE,129,9.0,9.0,78,0.00,,,0.00,Wunderground v.1.15,2013-04-03 18:30:00,
2013-04-03 14:40:00,82.2,74.7,29.96,East,90,10.0,11.0,78,0.00,,,0.00,Wunderground v.1.15,2013-04-03 18:40:00,
2013-04-03 14:50:00,82.7,74.8,29.96,ESE,116,9.0,13.0,77,0.00,,,0.00,Wunderground v.1.15,2013-04-03 18:50:00,
2013-04-03 14:55:00,82.7,75.1,29.97,SSE,158,9.0,13.0,78,0.00,,,0.00,Wunderground v.1.15,2013-04-03 18:55:00,
2013-04-03 15:00:00,82.5,74.9,29.97,SSE,153,9.0,9.0,78,0.00,,,0.00,Wunderground v.1.15,2013-04-03 19:00:00,
2013-04-03 15:10:00,82.8,74.8,29.96,SE,136,9.0,10.0,77,0.00,,,0.00,Wunderground v.1.15,2013-04-03 19:10:00,
2013-04-03 15:20:00,82.0,74.5,29.96,SE,126,9.0,10.0,78,0.00,,,0.00,Wunderground v.1.15,2013-04-03 19:20:00,
2013-04-03 15:30:00,82.8,74.5,29.96,South,173,10.0,10.0,76,0.00,,,0.00,Wunderground v.1.15,2013-04-03 19:30:00,
2013-04-03 15:35:00,83.3,74.5,29.97,ESE,123,9.0,12.0,75,0.00,,,0.00,Wunderground v.1.15,2013-04-03 19:35:00,
2013-04-03 15:40:00,82.7,74.4,29.96,SE,130,9.0,9.0,76,0.00,,,0.00,Wunderground v.1.15,2013-04-03 19:40:00,
2013-04-03 15:50:00,82.1,74.2,29.96,ESE,121,10.0,10.0,77,0.00,,,0.00,Wunderground v.1.15,2013-04-03 19:50:00,
2013-04-03 16:00:00,82.6,74.7,29.95,East,90,9.0,9.0,77,0.00,,,0.00,Wunderground v.1.15,2013-04-03 20:00:00,
2013-04-03 16:10:00,82.8,74.5,29.95,SE,137,9.0,12.0,76,0.00,,,0.00,Wunderground v.1.15,2013-04-03 20:10:00,
2013-04-03 16:20:00,83.1,75.1,29.95,SE,129,9.0,9.0,77,0.00,,,0.00,Wunderground v.1.15,2013-04-03 20:20:00,
2013-04-03 16:30:00,83.1,75.1,29.95,SE,146,9.0,9.0,77,0.00,,,0.00,Wunderground v.1.15,2013-04-03 20:30:00,
2013-04-03 16:40:00,83.0,74.6,29.95,SE,127,9.0,9.0,76,0.00,,,0.00,Wunderground v.1.15,2013-04-03 20:40:00,
2013-04-03 16:50:00,82.8,74.5,29.95,SE,136,9.0,12.0,76,0.00,,,0.00,Wunderground v.1.15,2013-04-03 20:50:00,
2013-04-03 16:55:00,82.9,74.9,29.95,ESE,107,9.0,12.0,77,0.00,,,0.00,Wunderground v.1.15,2013-04-03 20:55:00,
2013-04-03 17:05:00,82.8,74.5,29.94,ESE,117,9.0,9.0,76,0.00,,,0.00,Wunderground v.1.15,2013-04-03 21:05:00,
2013-04-03 17:10:00,82.6,74.3,29.94,SE,134,10.0,10.0,76,0.00,,,0.00,Wunderground v.1.15,2013-04-03 21:10:00,
2013-04-03 17:20:00,82.2,73.9,29.94,East,96,11.0,14.0,76,0.00,,,0.00,Wunderground v.1.15,2013-04-03 21:20:00,
2013-04-03 17:30:00,81.7,73.4,29.94,SE,134,12.0,12.0,76,0.00,,,0.00,Wunderground v.1.15,2013-04-03 21:30:00,
2013-04-03 17:35:00,81.7,73.8,29.95,ESE,107,12.0,12.0,77,0.00,,,0.00,Wunderground v.1.15,2013-04-03 21:35:00,
2013-04-03 17:45:00,81.5,73.6,29.94,SE,131,10.0,14.0,77,0.00,,,0.00,Wunderground v.1.15,2013-04-03 21:45:00,
2013-04-03 17:50:00,81.5,73.6,29.94,SE,126,9.0,9.0,77,0.00,,,0.00,Wunderground v.1.15,2013-04-03 21:50:00,
2013-04-03 18:00:00,81.0,73.1,29.94,ESE,123,10.0,10.0,77,0.00,,,0.00,Wunderground v.1.15,2013-04-03 22:00:00,
2013-04-03 18:05:00,80.6,72.7,29.94,SE,136,11.0,11.0,77,0.00,,,0.00,Wunderground v.1.15,2013-04-03 22:05:00,
2013-04-03 18:10:00,80.4,72.9,29.94,East,100,11.0,11.0,78,0.00,,,0.00,Wunderground v.1.15,2013-04-03 22:10:00,
2013-04-03 18:20:00,80.0,72.9,29.94,East,91,10.0,15.0,79,0.00,,,0.00,Wunderground v.1.15,2013-04-03 22:20:00,
2013-04-03 18:30:00,79.5,72.8,29.94,ESE,113,11.0,16.0,80,0.00,,,0.00,Wunderground v.1.15,2013-04-03 22:30:00,
2013-04-03 18:40:00,79.2,72.9,29.94,ESE,117,10.0,14.0,81,0.00,,,0.00,Wunderground v.1.15,2013-04-03 22:40:00,
2013-04-03 18:45:00,79.0,72.7,29.94,SSE,147,10.0,14.0,81,0.00,,,0.00,Wunderground v.1.15,2013-04-03 22:45:00,
2013-04-03 18:55:00,78.6,72.6,29.94,East,97,10.0,11.0,82,0.00,,,0.00,Wunderground v.1.15,2013-04-03 22:55:00,
2013-04-03 19:00:00,78.4,72.4,29.94,East,99,10.0,12.0,82,0.00,,,0.00,Wunderground v.1.15,2013-04-03 23:00:00,
2013-04-03 19:05:00,78.2,72.3,29.94,ESE,113,11.0,12.0,82,0.00,,,0.00,Wunderground v.1.15,2013-04-03 23:05:00,
2013-04-03 19:15:00,78.0,72.4,29.95,ESE,103,10.0,14.0,83,0.00,,,0.00,Wunderground v.1.15,2013-04-03 23:15:00,
2013-04-03 19:20:00,77.9,72.3,29.94,ESE,107,10.0,13.0,83,0.00,,,0.00,Wunderground v.1.15,2013-04-03 23:20:00,
2013-04-03 19:30:00,77.8,72.6,29.95,East,98,10.0,13.0,84,0.00,,,0.00,Wunderground v.1.15,2013-04-03 23:30:00,
2013-04-03 19:35:00,77.7,72.1,29.95,ESE,113,10.0,13.0,83,0.00,,,0.00,Wunderground v.1.15,2013-04-03 23:35:00,
2013-04-03 19:40:00,77.6,72.0,29.95,ESE,109,10.0,10.0,83,0.00,,,0.00,Wunderground v.1.15,2013-04-03 23:40:00,
2013-04-03 19:50:00,77.6,72.4,29.95,ESE,102,10.0,10.0,84,0.00,,,0.00,Wunderground v.1.15,2013-04-03 23:50:00,
2013-04-03 20:00:00,77.6,72.4,29.96,East,92,9.0,12.0,84,0.00,,,0.00,Wunderground v.1.15,2013-04-04 00:00:00,
2013-04-03 20:05:00,77.5,72.3,29.97,ESE,114,9.0,12.0,84,0.00,,,0.00,Wunderground v.1.15,2013-04-04 00:05:00,
2013-04-03 20:10:00,77.5,72.3,29.97,ENE,77,10.0,10.0,84,0.00,,,0.00,Wunderground v.1.15,2013-04-04 00:10:00,
2013-04-03 20:20:00,77.5,72.6,29.97,NE,36,8.0,8.0,85,0.00,,,0.00,Wunderground v.1.15,2013-04-04 00:20:00,
2013-04-03 20:25:00,77.4,72.5,29.98,East,101,8.0,10.0,85,0.00,,,0.00,Wunderground v.1.15,2013-04-04 00:25:00,
2013-04-03 20:35:00,77.2,72.3,29.98,ENE,71,7.0,8.0,85,0.00,,,0.00,Wunderground v.1.15,2013-04-04 00:35:00,
2013-04-03 20:45:00,77.1,72.2,29.99,East,86,8.0,15.0,85,0.00,,,0.00,Wunderground v.1.15,2013-04-04 00:45:00,
2013-04-03 20:50:00,77.1,72.2,29.99,ESE,107,8.0,8.0,85,0.00,,,0.00,Wunderground v.1.15,2013-04-04 00:50:00,
2013-04-03 20:55:00,77.0,72.1,29.99,ESE,102,8.0,8.0,85,0.00,,,0.00,Wunderground v.1.15,2013-04-04 00:55:00,
2013-04-03 21:00:00,77.0,72.1,29.99,East,93,8.0,8.0,85,0.00,,,0.00,Wunderground v.1.15,2013-04-04 01:00:00,
2013-04-03 21:10:00,76.8,71.9,29.99,ENE,78,9.0,10.0,85,0.00,,,0.00,Wunderground v.1.15,2013-04-04 01:10:00,
2013-04-03 21:15:00,76.9,72.0,29.99,ESE,119,9.0,11.0,85,0.00,,,0.00,Wunderground v.1.15,2013-04-04 01:15:00,
2013-04-03 21:25:00,76.9,72.0,29.99,SE,129,9.0,11.0,85,0.00,,,0.00,Wunderground v.1.15,2013-04-04 01:25:00,
2013-04-03 21:30:00,76.9,72.0,29.99,ESE,123,9.0,9.0,85,0.00,,,0.00,Wunderground v.1.15,2013-04-04 01:30:00,
2013-04-03 21:40:00,76.9,72.0,29.99,East,86,8.0,8.0,85,0.00,,,0.00,Wunderground v.1.15,2013-04-04 01:40:00,
2013-04-03 21:50:00,76.8,72.3,30.00,SSE,149,9.0,9.0,86,0.00,,,0.00,Wunderground v.1.15,2013-04-04 01:50:00,
2013-04-03 21:55:00,76.9,72.4,30.00,East,101,9.0,11.0,86,0.00,,,0.00,Wunderground v.1.15,2013-04-04 01:55:00,
2013-04-03 22:05:00,76.7,72.2,30.00,SE,125,10.0,12.0,86,0.00,,,0.00,Wunderground v.1.15,2013-04-04 02:05:00,
2013-04-03 22:10:00,76.7,72.2,30.01,SE,140,9.0,9.0,86,0.00,,,0.00,Wunderground v.1.15,2013-04-04 02:10:00,
2013-04-03 22:20:00,76.8,72.6,30.01,SE,127,9.0,9.0,87,0.00,,,0.00,Wunderground v.1.15,2013-04-04 02:20:00,
2013-04-03 22:30:00,76.7,72.5,30.01,ESE,104,9.0,13.0,87,0.00,,,0.00,Wunderground v.1.15,2013-04-04 02:30:00,
2013-04-03 22:35:00,76.7,72.5,30.01,ESE,115,10.0,13.0,87,0.00,,,0.00,Wunderground v.1.15,2013-04-04 02:35:00,
2013-04-03 22:45:00,76.6,72.8,30.01,SE,133,9.0,13.0,88,0.00,,,0.00,Wunderground v.1.15,2013-04-04 02:45:00,
2013-04-03 22:50:00,76.5,72.7,30.01,ESE,109,9.0,10.0,88,0.00,,,0.00,Wunderground v.1.15,2013-04-04 02:50:00,
2013-04-03 23:00:00,76.3,72.5,30.01,SE,142,10.0,10.0,88,0.00,,,0.00,Wunderground v.1.15,2013-04-04 03:00:00,
2013-04-03 23:10:00,76.3,72.5,30.01,ESE,120,9.0,9.0,88,0.00,,,0.00,Wunderground v.1.15,2013-04-04 03:10:00,
2013-04-03 23:15:00,76.3,72.8,30.01,SE,143,9.0,9.0,89,0.00,,,0.00,Wunderground v.1.15,2013-04-04 03:15:00,
2013-04-03 23:20:00,76.2,72.4,30.01,ESE,123,9.0,10.0,88,0.00,,,0.00,Wunderground v.1.15,2013-04-04 03:20:00,
2013-04-03 23:30:00,76.2,72.7,30.01,SE,142,9.0,9.0,89,0.00,,,0.00,Wunderground v.1.15,2013-04-04 03:30:00,
2013-04-03 23:40:00,76.1,72.6,30.02,East,96,9.0,9.0,89,0.00,,,0.00,Wunderground v.1.15,2013-04-04 03:40:00,
2013-04-03 23:50:00,76.1,72.6,30.02,SE,133,8.0,8.0,89,0.00,,,0.00,Wunderground v.1.15,2013-04-04 03:50:00,
2013-04-03 23:55:00,76.1,72.6,30.02,SE,137,8.0,9.0,89,0.00,,,0.00,Wunderground v.1.15,2013-04-04 03:55:00,